Aviation Digital Data Service (ADDS)

Output produced by METARs form (0347 UTC 17 July 2018)
found at http://aviationweather.gov/adds/metars/
 
KDFW 170253Z 13008KT 10SM CLR 33/17 A2995 RMK AO2 SLP130 T03280167 53013